Time;durP1;ratioP1;P1;durP2;ratioP2;P2;SDS_P1;SDS_P2;PMS_P1;PMS_P2;Temp;Humidity;BMP_temperature;BMP_pressure;BME280_temperature;BME280_humidity;BME280_pressure;Samples;Min_cycle;Max_cycle;Signal;HPM_P1;HPM_P2
2024/01/23 00:00:35;;;;;;;15.37;4.40;;;7.30;99.90;;;;;;5048476;28;20507;-85
2024/01/23 00:03:00;;;;;;;25.23;4.97;;;7.30;99.90;;;;;;5050774;28;20132;-84
2024/01/23 00:05:26;;;;;;;12.43;3.60;;;7.30;99.90;;;;;;5034371;28;20519;-83
2024/01/23 00:07:52;;;;;;;15.93;4.30;;;7.20;99.90;;;;;;5050480;28;20070;-85
2024/01/23 00:10:19;;;;;;;16.37;4.17;;;7.20;99.90;;;;;;5029104;28;21306;-86
2024/01/23 00:12:45;;;;;;;15.77;3.70;;;7.20;99.90;;;;;;5035466;28;20048;-84
2024/01/23 00:15:11;;;;;;;17.97;4.20;;;7.10;99.90;;;;;;5045743;28;20037;-84
2024/01/23 00:17:37;;;;;;;22.50;4.30;;;7.10;99.90;;;;;;5036494;28;20492;-84
2024/01/23 00:20:04;;;;;;;22.83;4.50;;;7.10;99.90;;;;;;5052022;28;20033;-83
2024/01/23 00:22:30;;;;;;;13.30;4.13;;;7.10;99.90;;;;;;5036281;28;20063;-86
2024/01/23 00:24:56;;;;;;;14.27;3.43;;;7.00;99.90;;;;;;5048273;28;20496;-85
2024/01/23 00:27:21;;;;;;;16.97;3.80;;;7.10;99.90;;;;;;5033469;28;20411;-85
2024/01/23 00:29:47;;;;;;;17.37;3.73;;;7.00;99.90;;;;;;5024305;28;20049;-87
2024/01/23 00:32:13;;;;;;;14.87;3.63;;;7.00;99.90;;;;;;5045808;28;20102;-85
2024/01/23 00:34:39;;;;;;;17.70;4.33;;;7.00;99.90;;;;;;5032911;28;20404;-85
2024/01/23 00:37:05;;;;;;;19.37;4.00;;;7.10;99.90;;;;;;5031208;28;20037;-84
2024/01/23 00:39:30;;;;;;;16.30;3.63;;;7.00;99.90;;;;;;5050707;28;20404;-84
2024/01/23 00:41:56;;;;;;;19.53;4.33;;;7.00;99.90;;;;;;5033602;28;20443;-85
2024/01/23 00:44:22;;;;;;;19.67;3.93;;;7.00;99.90;;;;;;5034382;28;20057;-84
2024/01/23 00:46:48;;;;;;;13.80;3.70;;;7.00;99.90;;;;;;5032542;28;20075;-85
2024/01/23 00:49:13;;;;;;;13.13;3.40;;;7.10;99.90;;;;;;5036264;28;20093;-84
2024/01/23 00:51:39;;;;;;;13.83;3.97;;;7.10;99.90;;;;;;5039466;28;20037;-84
2024/01/23 00:54:05;;;;;;;19.93;3.67;;;7.10;99.90;;;;;;5050583;28;20132;-85
2024/01/23 00:56:31;;;;;;;15.20;4.53;;;7.10;99.90;;;;;;5046102;28;20124;-85
2024/01/23 00:58:56;;;;;;;15.53;3.67;;;7.10;99.90;;;;;;5032616;28;20033;-84
2024/01/23 01:01:22;;;;;;;14.80;4.47;;;7.20;99.90;;;;;;5034289;28;20048;-84
2024/01/23 01:03:48;;;;;;;16.73;4.23;;;7.30;99.90;;;;;;5034890;28;20077;-83
2024/01/23 01:06:14;;;;;;;17.63;3.87;;;7.20;99.90;;;;;;5051542;28;20119;-85
2024/01/23 01:08:39;;;;;;;15.77;3.40;;;7.30;99.90;;;;;;5050894;28;20096;-85
2024/01/23 01:11:06;;;;;;;17.73;4.23;;;7.30;99.90;;;;;;5027224;28;20034;-83
2024/01/23 01:13:32;;;;;;;16.87;3.50;;;7.20;99.90;;;;;;5043988;28;20139;-85
2024/01/23 01:15:58;;;;;;;12.37;3.63;;;7.30;99.90;;;;;;5043746;28;20124;-84
2024/01/23 01:18:23;;;;;;;12.33;3.77;;;7.30;99.90;;;;;;5037985;28;20049;-85
2024/01/23 01:20:49;;;;;;;15.70;4.50;;;7.20;99.90;;;;;;5063769;28;20036;-84
2024/01/23 01:23:16;;;;;;;12.67;4.07;;;7.20;99.90;;;;;;5056757;28;20044;-84
2024/01/23 01:25:45;;;;;;;16.67;3.17;;;7.30;99.90;;;;;;5037659;28;20047;-86
2024/01/23 01:28:11;;;;;;;19.57;4.43;;;7.30;99.90;;;;;;5016797;28;20150;-85
2024/01/23 01:30:37;;;;;;;17.87;4.47;;;7.30;99.90;;;;;;5053094;28;20056;-85
2024/01/23 01:33:05;;;;;;;16.50;3.37;;;7.20;99.90;;;;;;5055163;28;20052;-83
2024/01/23 01:35:31;;;;;;;18.13;3.90;;;7.20;99.90;;;;;;5042827;28;20080;-84
2024/01/23 01:37:56;;;;;;;17.83;4.37;;;7.20;99.90;;;;;;5035170;28;20154;-85
2024/01/23 01:40:24;;;;;;;18.17;4.00;;;7.20;99.90;;;;;;5051985;28;20128;-85
2024/01/23 01:42:53;;;;;;;15.57;4.13;;;7.20;99.90;;;;;;5044104;28;20052;-84
2024/01/23 01:45:18;;;;;;;17.57;4.33;;;7.10;99.90;;;;;;5055297;28;20037;-85
2024/01/23 01:47:46;;;;;;;18.20;3.77;;;7.10;99.90;;;;;;5033219;28;20400;-86
2024/01/23 01:50:13;;;;;;;18.57;4.20;;;7.10;99.90;;;;;;5035189;28;20045;-84
2024/01/23 01:52:41;;;;;;;14.17;3.90;;;7.20;99.90;;;;;;5052710;28;20055;-85
2024/01/23 01:55:08;;;;;;;16.50;4.30;;;7.20;99.90;;;;;;5054531;28;20056;-83
2024/01/23 01:57:36;;;;;;;14.20;4.43;;;7.10;99.90;;;;;;5034832;28;20040;-83
2024/01/23 02:00:03;;;;;;;14.53;4.00;;;7.10;99.90;;;;;;5056967;28;20036;-85
2024/01/23 02:02:29;;;;;;;16.47;4.70;;;7.10;99.90;;;;;;5042716;28;20467;-85
2024/01/23 02:04:55;;;;;;;14.60;4.37;;;7.10;99.90;;;;;;5029369;28;20053;-85
2024/01/23 02:07:21;;;;;;;18.43;4.33;;;7.10;99.90;;;;;;5053074;28;20045;-87
2024/01/23 02:09:47;;;;;;;14.63;4.10;;;7.00;99.90;;;;;;5034797;28;20098;-85
2024/01/23 02:12:16;;;;;;;17.00;3.90;;;6.90;99.90;;;;;;5017680;28;20120;-84
2024/01/23 02:14:42;;;;;;;20.03;4.60;;;6.90;99.90;;;;;;5038521;28;20059;-84
2024/01/23 02:17:08;;;;;;;16.10;3.97;;;6.90;99.90;;;;;;5051031;28;20039;-84
2024/01/23 02:19:34;;;;;;;15.10;4.13;;;6.90;99.90;;;;;;5038655;28;20041;-84
2024/01/23 02:22:00;;;;;;;17.73;4.23;;;6.90;99.90;;;;;;5041895;28;20045;-84
2024/01/23 02:24:25;;;;;;;14.77;3.80;;;6.80;99.90;;;;;;5039405;28;20037;-84
2024/01/23 02:26:51;;;;;;;17.03;5.13;;;6.80;99.90;;;;;;5034261;28;20041;-85
2024/01/23 02:29:17;;;;;;;14.00;3.87;;;6.80;99.90;;;;;;5036228;28;20041;-85
2024/01/23 02:31:43;;;;;;;16.77;4.37;;;6.80;99.90;;;;;;5017121;28;20067;-84
2024/01/23 02:34:09;;;;;;;18.47;4.13;;;6.70;99.90;;;;;;5051777;28;20045;-86
2024/01/23 02:36:39;;;;;;;16.20;4.30;;;6.70;99.90;;;;;;5053641;28;20537;-84
2024/01/23 02:39:08;;;;;;;18.57;4.50;;;6.70;99.90;;;;;;5052640;28;20037;-84
2024/01/23 02:41:34;;;;;;;16.50;4.53;;;6.80;99.90;;;;;;5052608;28;20040;-86
2024/01/23 02:44:00;;;;;;;22.57;4.67;;;6.70;99.90;;;;;;5058546;28;20045;-84
2024/01/23 02:46:26;;;;;;;18.53;4.63;;;6.70;99.90;;;;;;5036073;28;20044;-85
2024/01/23 02:48:52;;;;;;;15.63;4.57;;;6.80;99.90;;;;;;5035893;28;20052;-85
2024/01/23 02:51:19;;;;;;;17.67;4.10;;;6.70;99.90;;;;;;5034009;28;20456;-85
2024/01/23 02:53:45;;;;;;;14.47;4.30;;;6.70;99.90;;;;;;5038925;28;20080;-83
2024/01/23 02:56:11;;;;;;;20.13;5.23;;;6.70;99.90;;;;;;5054120;28;20045;-84
2024/01/23 02:58:39;;;;;;;15.60;4.20;;;6.80;99.90;;;;;;5041035;28;20043;-85
2024/01/23 03:01:04;;;;;;;20.20;4.73;;;6.80;99.90;;;;;;5041197;28;20083;-84
2024/01/23 03:03:33;;;;;;;20.17;4.77;;;6.70;99.90;;;;;;5052419;28;20388;-85
2024/01/23 03:05:58;;;;;;;17.50;4.70;;;6.70;99.90;;;;;;5036115;28;20040;-85
2024/01/23 03:08:24;;;;;;;21.30;4.20;;;6.70;99.90;;;;;;5037673;28;20466;-85
2024/01/23 03:10:50;;;;;;;24.20;4.97;;;6.80;99.90;;;;;;5055362;28;20447;-83
2024/01/23 03:13:18;;;;;;;20.40;4.67;;;6.80;99.90;;;;;;5052640;28;20067;-85
2024/01/23 03:15:44;;;;;;;17.17;4.73;;;6.80;99.90;;;;;;5038621;28;20025;-85
2024/01/23 03:18:13;;;;;;;17.83;4.80;;;6.80;99.90;;;;;;5035331;28;20041;-84
2024/01/23 03:20:39;;;;;;;19.83;4.70;;;6.80;99.90;;;;;;5031183;28;20033;-85
2024/01/23 03:23:05;;;;;;;22.20;4.90;;;6.80;99.90;;;;;;5050136;28;20507;-84
2024/01/23 03:25:31;;;;;;;21.30;4.67;;;6.80;99.90;;;;;;5049281;28;20048;-85
2024/01/23 03:27:58;;;;;;;20.03;3.90;;;6.90;99.90;;;;;;5050946;28;20355;-85
2024/01/23 03:30:28;;;;;;;20.97;4.77;;;6.90;99.90;;;;;;5049531;28;20392;-84
2024/01/23 03:32:58;;;;;;;22.03;4.97;;;6.90;99.90;;;;;;5032604;28;20726;-85
2024/01/23 03:35:24;;;;;;;17.37;4.70;;;6.90;99.90;;;;;;5033179;28;20558;-85
2024/01/23 03:37:51;;;;;;;22.20;5.20;;;7.00;99.90;;;;;;5046268;28;20037;-86
2024/01/23 03:40:17;;;;;;;18.27;5.23;;;7.00;99.90;;;;;;5037100;28;20032;-83
2024/01/23 03:42:43;;;;;;;21.93;5.23;;;7.00;99.90;;;;;;5036559;28;20037;-84
2024/01/23 03:45:08;;;;;;;22.33;5.17;;;7.00;99.90;;;;;;5039311;28;20583;-84
2024/01/23 03:47:35;;;;;;;22.47;4.97;;;7.00;99.90;;;;;;5053259;28;20048;-85
2024/01/23 03:50:01;;;;;;;16.17;4.47;;;7.00;99.90;;;;;;5032716;28;20148;-85
2024/01/23 03:52:28;;;;;;;15.07;4.47;;;7.00;99.90;;;;;;5050756;28;20045;-85
2024/01/23 03:54:54;;;;;;;20.03;4.83;;;6.90;99.90;;;;;;5035082;28;20041;-85
2024/01/23 03:57:20;;;;;;;20.07;4.23;;;7.00;99.90;;;;;;5032884;28;20059;-84
2024/01/23 03:59:46;;;;;;;21.60;5.07;;;7.00;99.90;;;;;;5021271;28;20684;-84
2024/01/23 04:02:14;;;;;;;21.23;5.00;;;7.00;99.90;;;;;;5038610;28;20438;-84
2024/01/23 04:04:41;;;;;;;23.00;5.27;;;7.00;99.90;;;;;;5012454;28;20132;-85
2024/01/23 04:07:06;;;;;;;23.63;5.00;;;7.00;99.90;;;;;;5035418;28;20037;-85
2024/01/23 04:09:32;;;;;;;21.17;4.77;;;7.10;99.90;;;;;;5021351;28;20041;-84
2024/01/23 04:11:58;;;;;;;22.57;4.70;;;7.10;99.90;;;;;;5032237;28;20041;-84
2024/01/23 04:14:24;;;;;;;28.10;5.10;;;7.10;99.90;;;;;;5014232;28;20488;-84
2024/01/23 04:16:50;;;;;;;24.87;5.33;;;7.10;99.90;;;;;;5033902;28;20487;-84
2024/01/23 04:19:15;;;;;;;18.30;5.10;;;7.10;99.90;;;;;;5021324;28;20042;-83
2024/01/23 04:21:41;;;;;;;22.97;5.67;;;7.10;99.90;;;;;;5035632;28;20111;-83
2024/01/23 04:24:07;;;;;;;17.80;4.53;;;7.10;99.90;;;;;;5053183;28;20043;-85
2024/01/23 04:26:33;;;;;;;22.27;5.13;;;7.10;99.90;;;;;;5057322;28;20055;-85
2024/01/23 04:28:59;;;;;;;19.53;4.90;;;7.20;99.90;;;;;;5031417;28;20072;-84
2024/01/23 04:31:25;;;;;;;21.37;5.77;;;7.20;99.90;;;;;;5020966;28;20083;-85
2024/01/23 04:33:52;;;;;;;22.23;5.60;;;7.10;99.90;;;;;;5036245;28;20041;-83
2024/01/23 04:36:18;;;;;;;23.80;5.60;;;7.10;99.90;;;;;;5052861;28;20055;-84
2024/01/23 04:38:44;;;;;;;20.67;5.13;;;7.10;99.90;;;;;;5031070;28;20033;-84
2024/01/23 04:41:11;;;;;;;22.47;5.87;;;7.10;99.90;;;;;;5049816;28;20036;-84
2024/01/23 04:43:37;;;;;;;20.53;5.57;;;7.10;99.90;;;;;;5032789;28;20033;-83
2024/01/23 04:46:03;;;;;;;20.03;5.27;;;7.10;99.90;;;;;;5039073;28;20708;-84
2024/01/23 04:48:29;;;;;;;19.67;5.20;;;7.20;99.90;;;;;;5024798;28;20031;-85
2024/01/23 04:50:55;;;;;;;23.77;5.27;;;7.20;99.90;;;;;;5043897;28;20032;-85
2024/01/23 04:53:22;;;;;;;28.03;6.37;;;7.30;99.90;;;;;;5037615;28;20416;-84
2024/01/23 04:55:50;;;;;;;18.97;4.93;;;7.20;99.90;;;;;;5021999;28;20500;-84
2024/01/23 04:58:16;;;;;;;24.43;5.03;;;7.20;99.90;;;;;;5036642;28;20086;-84
2024/01/23 05:00:41;;;;;;;19.93;5.83;;;7.20;99.90;;;;;;5022108;28;20132;-84
2024/01/23 05:03:07;;;;;;;25.90;5.63;;;7.20;99.90;;;;;;5057126;28;20124;-84
2024/01/23 05:05:33;;;;;;;23.67;5.63;;;7.20;99.90;;;;;;5052707;28;20115;-84
2024/01/23 05:07:58;;;;;;;26.07;6.70;;;7.30;99.90;;;;;;5022348;28;20039;-85
2024/01/23 05:10:24;;;;;;;25.07;5.90;;;7.30;99.90;;;;;;5056507;28;20037;-84
2024/01/23 05:12:50;;;;;;;29.13;5.97;;;7.30;99.90;;;;;;5040535;28;20037;-85
2024/01/23 05:15:16;;;;;;;24.87;5.80;;;7.30;99.90;;;;;;5057950;28;20040;-85
2024/01/23 05:17:42;;;;;;;24.23;5.43;;;7.30;99.90;;;;;;5054776;28;20033;-84
2024/01/23 05:20:08;;;;;;;20.87;5.53;;;7.30;99.90;;;;;;5058717;28;20396;-83
2024/01/23 05:22:35;;;;;;;22.83;6.10;;;7.30;99.90;;;;;;5024459;28;20036;-84
2024/01/23 05:25:02;;;;;;;23.60;6.00;;;7.20;99.90;;;;;;5039190;28;20127;-84
2024/01/23 05:27:28;;;;;;;20.13;5.07;;;7.30;99.90;;;;;;5019941;28;20044;-84
2024/01/23 05:29:54;;;;;;;26.73;5.50;;;7.30;99.90;;;;;;5029041;28;20037;-83
2024/01/23 05:32:21;;;;;;;26.10;6.07;;;7.30;99.90;;;;;;5055508;28;20049;-85
2024/01/23 05:34:46;;;;;;;28.93;6.00;;;7.30;99.90;;;;;;5051944;28;20590;-84
2024/01/23 05:37:12;;;;;;;19.37;6.07;;;7.30;99.90;;;;;;5054775;28;20045;-84
2024/01/23 05:39:39;;;;;;;22.53;6.10;;;7.20;99.90;;;;;;5037950;28;20370;-84
2024/01/23 05:42:06;;;;;;;28.57;6.23;;;7.30;99.90;;;;;;5034898;28;20074;-85
2024/01/23 05:44:32;;;;;;;23.67;6.13;;;7.30;99.90;;;;;;5035233;28;20504;-84
2024/01/23 05:46:58;;;;;;;25.43;5.83;;;7.30;99.90;;;;;;5052445;28;20041;-84
2024/01/23 05:49:24;;;;;;;28.30;6.37;;;7.30;99.90;;;;;;5041153;28;20025;-85
2024/01/23 05:51:50;;;;;;;29.70;6.57;;;7.30;99.90;;;;;;5037256;28;20512;-84
2024/01/23 05:54:16;;;;;;;23.80;6.40;;;7.30;99.90;;;;;;5031701;28;20056;-85
2024/01/23 05:56:41;;;;;;;28.27;6.60;;;7.30;99.90;;;;;;5045576;28;20044;-83
2024/01/23 05:59:07;;;;;;;29.13;6.73;;;7.30;99.90;;;;;;5036452;28;20037;-86
2024/01/23 06:01:33;;;;;;;31.70;6.57;;;7.30;99.90;;;;;;5037871;28;20079;-83
2024/01/23 06:03:59;;;;;;;27.40;6.47;;;7.30;99.90;;;;;;5035248;28;20094;-84
2024/01/23 06:06:26;;;;;;;28.57;6.90;;;7.40;99.90;;;;;;5033834;28;20467;-84
2024/01/23 06:08:52;;;;;;;26.70;6.23;;;7.30;99.90;;;;;;5054817;28;20112;-85
2024/01/23 06:11:18;;;;;;;24.87;6.50;;;7.30;99.90;;;;;;5034095;28;20136;-85
2024/01/23 06:13:44;;;;;;;27.13;6.30;;;7.40;99.90;;;;;;5035909;28;20037;-85
2024/01/23 06:16:12;;;;;;;22.30;6.83;;;7.40;99.90;;;;;;5040475;28;20051;-84
2024/01/23 06:18:38;;;;;;;31.90;6.73;;;7.40;99.90;;;;;;5051411;28;20041;-85
2024/01/23 06:21:04;;;;;;;32.33;7.40;;;7.40;99.90;;;;;;5048021;28;20033;-86
2024/01/23 06:23:30;;;;;;;31.73;6.73;;;7.40;99.90;;;;;;5033444;28;20488;-85
2024/01/23 06:25:55;;;;;;;27.00;6.20;;;7.40;99.90;;;;;;5054352;28;20032;-87
2024/01/23 06:28:24;;;;;;;36.87;7.73;;;7.40;99.90;;;;;;5037129;28;20084;-84
2024/01/23 06:30:50;;;;;;;29.33;7.20;;;7.40;99.90;;;;;;5050595;28;20033;-85
2024/01/23 06:33:15;;;;;;;27.93;6.33;;;7.40;99.90;;;;;;5046498;28;20103;-85
2024/01/23 06:35:41;;;;;;;27.67;7.07;;;7.40;99.90;;;;;;5046804;28;20538;-85
2024/01/23 06:38:07;;;;;;;27.47;7.40;;;7.30;99.90;;;;;;5033724;28;20148;-84
2024/01/23 06:40:33;;;;;;;30.30;6.97;;;7.30;99.90;;;;;;5050128;28;20040;-84
2024/01/23 06:42:58;;;;;;;27.73;6.83;;;7.30;99.90;;;;;;5032167;28;20087;-84
2024/01/23 06:45:24;;;;;;;29.50;6.77;;;7.30;99.90;;;;;;5041555;28;20071;-84
2024/01/23 06:47:50;;;;;;;29.83;6.60;;;7.30;99.90;;;;;;5017923;28;20041;-84
2024/01/23 06:50:16;;;;;;;28.63;7.83;;;7.20;99.90;;;;;;5052099;28;20037;-84
2024/01/23 06:52:41;;;;;;;28.17;6.70;;;7.20;99.90;;;;;;5035203;28;20488;-85
2024/01/23 06:55:08;;;;;;;28.20;7.73;;;7.30;99.90;;;;;;5015787;28;20068;-83
2024/01/23 06:57:33;;;;;;;31.53;7.27;;;7.10;99.90;;;;;;5048408;28;20037;-85
2024/01/23 06:59:59;;;;;;;31.13;7.77;;;7.10;99.90;;;;;;5018215;28;20045;-84
2024/01/23 07:02:25;;;;;;;38.80;7.53;;;7.10;99.90;;;;;;5032271;28;20037;-86
2024/01/23 07:04:51;;;;;;;25.53;6.67;;;7.10;99.90;;;;;;5046578;28;20045;-84
2024/01/23 07:07:18;;;;;;;30.67;7.23;;;7.10;99.90;;;;;;5049682;28;20040;-84
2024/01/23 07:09:44;;;;;;;28.70;7.70;;;7.10;99.90;;;;;;5049506;28;20056;-84
2024/01/23 07:12:10;;;;;;;30.90;6.90;;;7.00;99.90;;;;;;5031745;28;20033;-83
2024/01/23 07:14:36;;;;;;;31.93;7.57;;;7.00;99.90;;;;;;5053046;28;20041;-85
2024/01/23 07:17:01;;;;;;;28.33;6.83;;;7.00;99.90;;;;;;5019535;28;20075;-85
2024/01/23 07:19:27;;;;;;;28.10;6.63;;;6.90;99.90;;;;;;5018744;28;20068;-84
2024/01/23 07:21:53;;;;;;;30.63;7.73;;;6.90;99.90;;;;;;5050163;28;20037;-85
2024/01/23 07:24:19;;;;;;;32.10;6.87;;;6.90;99.90;;;;;;5034147;28;20500;-85
2024/01/23 07:26:44;;;;;;;36.67;7.73;;;6.80;99.90;;;;;;5050771;28;20041;-84
2024/01/23 07:29:10;;;;;;;29.20;7.63;;;6.80;99.90;;;;;;5036314;28;20515;-84
2024/01/23 07:31:37;;;;;;;34.37;7.30;;;6.70;99.90;;;;;;5032745;28;20095;-84
2024/01/23 07:34:03;;;;;;;31.93;8.03;;;6.70;99.90;;;;;;5019935;28;20028;-83
2024/01/23 07:36:32;;;;;;;34.70;7.70;;;6.70;99.90;;;;;;5017875;28;20033;-83
2024/01/23 07:38:57;;;;;;;32.00;6.57;;;6.70;99.90;;;;;;5043916;28;20386;-86
2024/01/23 07:41:23;;;;;;;28.87;7.57;;;6.70;99.90;;;;;;5055946;28;20037;-85
2024/01/23 07:43:49;;;;;;;32.47;7.47;;;6.70;99.90;;;;;;5059944;28;20037;-84
2024/01/23 07:46:16;;;;;;;30.50;7.27;;;6.70;99.90;;;;;;5003954;28;20029;-84
2024/01/23 07:48:41;;;;;;;31.13;7.00;;;6.70;99.90;;;;;;5049954;28;20047;-84
2024/01/23 07:51:07;;;;;;;33.20;7.40;;;6.70;99.90;;;;;;5016751;28;20041;-84
2024/01/23 07:53:33;;;;;;;27.33;6.03;;;6.60;99.90;;;;;;5044099;28;20119;-85
2024/01/23 07:56:00;;;;;;;33.37;7.83;;;6.60;99.90;;;;;;5049598;28;20084;-83
2024/01/23 07:58:25;;;;;;;31.47;7.30;;;6.60;99.90;;;;;;5064549;28;20098;-84
2024/01/23 08:00:51;;;;;;;31.03;7.60;;;6.60;99.90;;;;;;5036313;28;20442;-84
2024/01/23 08:03:17;;;;;;;25.13;6.60;;;6.60;99.90;;;;;;5040687;28;20047;-84
2024/01/23 08:05:43;;;;;;;30.73;6.53;;;6.60;99.90;;;;;;5033143;28;20106;-83
2024/01/23 08:08:09;;;;;;;35.13;8.00;;;6.70;99.90;;;;;;5039962;28;20045;-83
2024/01/23 08:10:35;;;;;;;29.17;7.87;;;6.70;99.90;;;;;;5033117;28;20049;-83
2024/01/23 08:13:00;;;;;;;32.93;7.43;;;6.70;99.90;;;;;;5018848;28;20563;-83
2024/01/23 08:15:28;;;;;;;35.47;6.77;;;6.70;99.90;;;;;;5032429;28;20128;-84
2024/01/23 08:17:55;;;;;;;33.67;7.03;;;6.80;99.90;;;;;;5032598;28;20041;-83
2024/01/23 08:20:21;;;;;;;20.97;6.30;;;6.70;99.90;;;;;;5025530;28;20060;-84
2024/01/23 08:22:47;;;;;;;30.17;6.73;;;6.70;99.90;;;;;;5039926;28;20064;-84
2024/01/23 08:25:13;;;;;;;37.47;7.70;;;6.60;99.90;;;;;;5049472;28;20048;-85
2024/01/23 08:27:39;;;;;;;31.63;7.33;;;6.60;99.90;;;;;;5036645;28;20443;-84
2024/01/23 08:30:05;;;;;;;30.03;7.13;;;6.60;99.90;;;;;;5033650;28;20098;-83
2024/01/23 08:32:31;;;;;;;37.57;8.53;;;6.60;99.90;;;;;;5016229;28;20386;-84
2024/01/23 08:34:57;;;;;;;24.63;6.47;;;6.60;99.90;;;;;;5041472;28;20446;-84
2024/01/23 08:37:22;;;;;;;31.53;6.87;;;6.60;99.90;;;;;;5034015;28;20081;-83
2024/01/23 08:39:48;;;;;;;26.77;6.20;;;6.60;99.90;;;;;;5048965;28;20041;-83
2024/01/23 08:42:14;;;;;;;33.60;6.63;;;6.60;99.90;;;;;;5057001;28;20072;-83
2024/01/23 08:44:43;;;;;;;33.67;6.63;;;6.60;99.90;;;;;;5050640;28;20392;-84
2024/01/23 08:47:09;;;;;;;37.03;8.00;;;6.60;99.90;;;;;;5037799;28;20048;-83
2024/01/23 08:49:34;;;;;;;33.27;7.63;;;6.60;99.90;;;;;;5033217;28;20045;-84
2024/01/23 08:52:00;;;;;;;30.73;6.93;;;6.70;99.90;;;;;;5041845;28;20043;-85
2024/01/23 08:54:26;;;;;;;31.20;7.07;;;6.80;99.90;;;;;;5022301;28;20417;-85
2024/01/23 08:56:55;;;;;;;26.43;6.30;;;6.80;99.90;;;;;;5034330;28;20083;-84
2024/01/23 08:59:21;;;;;;;25.83;6.60;;;6.80;99.90;;;;;;5049361;28;20063;-84
2024/01/23 09:01:47;;;;;;;30.90;7.40;;;6.80;99.90;;;;;;5035445;28;20040;-84
2024/01/23 09:04:13;;;;;;;33.87;6.77;;;6.90;99.90;;;;;;5049704;28;20049;-83
2024/01/23 09:06:39;;;;;;;31.00;6.90;;;6.90;99.90;;;;;;5049180;28;20099;-83
2024/01/23 09:09:07;;;;;;;31.13;7.10;;;6.90;99.90;;;;;;5045673;28;20488;-84
2024/01/23 09:11:33;;;;;;;35.10;7.60;;;6.90;99.90;;;;;;5049743;28;20385;-83
2024/01/23 09:13:59;;;;;;;28.90;7.20;;;6.90;99.90;;;;;;5049532;28;20041;-83
2024/01/23 09:16:24;;;;;;;32.07;7.03;;;7.00;99.90;;;;;;5035485;28;20037;-84
2024/01/23 09:18:50;;;;;;;31.90;7.00;;;7.10;99.90;;;;;;5032673;28;20041;-84
2024/01/23 09:21:16;;;;;;;25.83;7.00;;;7.10;99.90;;;;;;5032206;28;20091;-85
2024/01/23 09:23:41;;;;;;;33.63;7.67;;;7.10;99.90;;;;;;5034398;28;20473;-84
2024/01/23 09:26:10;;;;;;;31.00;6.70;;;7.10;99.90;;;;;;5035816;28;20048;-84
2024/01/23 09:28:38;;;;;;;29.07;7.30;;;7.20;99.90;;;;;;5049267;28;20041;-84
2024/01/23 09:31:07;;;;;;;30.97;6.30;;;7.20;99.90;;;;;;5048030;28;20280;-84
2024/01/23 09:33:32;;;;;;;26.70;7.27;;;7.30;99.90;;;;;;5031766;28;20067;-84
2024/01/23 09:35:58;;;;;;;27.90;6.70;;;7.30;99.90;;;;;;5051071;28;20053;-83
2024/01/23 09:38:24;;;;;;;26.57;6.83;;;7.30;99.90;;;;;;5035441;28;20033;-83
2024/01/23 09:40:51;;;;;;;27.97;7.17;;;7.40;99.90;;;;;;5056471;28;20107;-85
2024/01/23 09:43:20;;;;;;;27.47;6.50;;;7.40;99.90;;;;;;5042397;28;20386;-84
2024/01/23 09:45:50;;;;;;;34.87;7.20;;;7.40;99.90;;;;;;5051782;28;20048;-84
2024/01/23 09:48:16;;;;;;;28.60;6.83;;;7.50;99.90;;;;;;5038986;28;20044;-84
2024/01/23 09:50:44;;;;;;;29.63;7.33;;;7.50;99.90;;;;;;5015904;28;20478;-83
2024/01/23 09:53:10;;;;;;;33.37;7.83;;;7.50;99.90;;;;;;5035042;28;20528;-84
2024/01/23 09:55:38;;;;;;;26.30;6.40;;;7.60;99.90;;;;;;5048031;28;20053;-84
2024/01/23 09:58:04;;;;;;;29.07;7.13;;;7.60;99.90;;;;;;5052977;28;20094;-84
2024/01/23 10:00:30;;;;;;;33.23;6.83;;;7.60;99.90;;;;;;5052120;28;20052;-84
2024/01/23 10:02:56;;;;;;;33.70;6.73;;;7.70;99.90;;;;;;5035498;28;20041;-83
2024/01/23 10:05:22;;;;;;;31.47;6.90;;;7.80;99.90;;;;;;5035384;28;20045;-84
2024/01/23 10:07:48;;;;;;;26.50;6.47;;;7.80;99.90;;;;;;5035310;28;20052;-84
2024/01/23 10:10:17;;;;;;;35.27;8.00;;;7.80;99.90;;;;;;5034865;28;20055;-83
2024/01/23 10:12:48;;;;;;;33.77;7.23;;;7.80;99.90;;;;;;5051749;28;20044;-84
2024/01/23 10:15:20;;;;;;;28.77;7.03;;;7.80;99.90;;;;;;5050320;28;20036;-84
2024/01/23 10:17:47;;;;;;;26.43;6.27;;;7.80;99.90;;;;;;5018988;28;20130;-85
2024/01/23 10:20:13;;;;;;;28.33;7.27;;;7.90;99.90;;;;;;5051704;28;20056;-84
2024/01/23 10:22:39;;;;;;;30.50;6.57;;;7.90;99.90;;;;;;5018622;28;20076;-85
2024/01/23 10:25:10;;;;;;;27.93;6.23;;;7.90;99.90;;;;;;5048077;28;20141;-85
2024/01/23 10:27:36;;;;;;;28.20;6.83;;;8.00;99.90;;;;;;5035072;28;20040;-84
2024/01/23 10:30:03;;;;;;;27.77;7.00;;;8.00;99.90;;;;;;5019712;28;20505;-85
2024/01/23 10:32:32;;;;;;;28.70;6.87;;;8.10;99.90;;;;;;5054391;28;20032;-84
2024/01/23 10:34:58;;;;;;;28.90;6.80;;;8.10;99.90;;;;;;5051173;28;20119;-84
2024/01/23 10:37:24;;;;;;;35.57;7.50;;;8.20;99.90;;;;;;5048906;28;20433;-84
2024/01/23 10:39:51;;;;;;;29.03;7.27;;;8.20;99.90;;;;;;5053040;28;20045;-84
2024/01/23 10:42:18;;;;;;;29.33;7.03;;;8.10;99.90;;;;;;5035156;28;20132;-89
2024/01/23 10:44:54;;;;;;;33.90;7.30;;;8.10;99.90;;;;;;5036038;28;20090;-89
2024/01/23 10:47:20;;;;;;;31.67;7.07;;;8.10;99.90;;;;;;5045954;28;20571;-88
2024/01/23 10:49:46;;;;;;;28.50;6.53;;;8.10;99.90;;;;;;5036923;28;20045;-86
2024/01/23 10:52:17;;;;;;;32.43;6.83;;;8.20;99.90;;;;;;5041776;28;20116;-88
2024/01/23 10:54:46;;;;;;;23.57;7.07;;;8.10;99.90;;;;;;5049950;28;20121;-92
2024/01/23 10:57:21;;;;;;;28.60;6.70;;;8.10;99.90;;;;;;5034073;28;20087;-90
2024/01/23 10:59:47;;;;;;;35.00;7.50;;;8.10;99.90;;;;;;5045670;28;20044;-88
2024/01/23 11:02:34;;;;;;;29.00;7.57;;;8.10;99.90;;;;;;5035635;28;20040;-86
2024/01/23 11:05:00;;;;;;;33.90;7.17;;;8.10;99.90;;;;;;5034164;28;20134;-87
2024/01/23 11:08:01;;;;;;;35.40;7.73;;;8.10;99.90;;;;;;5034980;28;20098;-88
2024/01/23 11:10:51;;;;;;;28.43;6.60;;;8.20;99.90;;;;;;5035953;28;20047;-90
2024/01/23 11:13:30;;;;;;;32.37;7.20;;;8.30;99.90;;;;;;5038234;28;20538;-88
2024/01/23 11:16:02;;;;;;;23.40;6.10;;;8.40;99.90;;;;;;5028833;28;20476;-91
2024/01/23 11:18:32;;;;;;;24.93;6.70;;;8.30;99.90;;;;;;5036159;28;20171;-87
2024/01/23 11:21:04;;;;;;;29.77;7.33;;;8.40;99.90;;;;;;5045420;28;20511;-90
2024/01/23 11:23:35;;;;;;;;;;;8.40;99.90;;;;;;5041820;28;20049;-89
2024/01/23 11:26:26;;;;;;;28.40;7.17;;;8.50;99.90;;;;;;5047016;28;19921;-89
2024/01/23 11:28:53;;;;;;;29.07;6.67;;;8.60;99.90;;;;;;5033787;28;20382;-89
2024/01/23 11:31:23;;;;;;;27.33;6.33;;;8.60;99.90;;;;;;5040185;28;20045;-87
2024/01/23 11:33:51;;;;;;;25.37;6.73;;;8.70;99.90;;;;;;5035546;28;20041;-84
2024/01/23 11:36:27;;;;;;;24.13;5.97;;;8.60;99.90;;;;;;5052900;28;20439;-85
2024/01/23 11:38:57;;;;;;;25.53;6.37;;;8.60;99.90;;;;;;5042625;28;20055;-85
2024/01/23 11:41:24;;;;;;;25.67;6.60;;;8.50;99.90;;;;;;5043100;28;20037;-85
2024/01/23 11:44:02;;;;;;;19.70;5.53;;;8.50;99.90;;;;;;5035087;28;20512;-85
2024/01/23 11:46:28;;;;;;;27.67;6.20;;;8.50;99.90;;;;;;5032204;28;20041;-86
2024/01/23 11:48:54;;;;;;;28.37;6.40;;;8.50;99.90;;;;;;5038619;28;20507;-85
2024/01/23 11:51:21;;;;;;;25.87;6.60;;;8.40;99.90;;;;;;5043308;28;20041;-85
2024/01/23 11:53:47;;;;;;;27.27;6.43;;;8.40;99.90;;;;;;5032950;28;20055;-85
2024/01/23 11:56:15;;;;;;;22.70;5.67;;;8.40;99.90;;;;;;5037427;28;20057;-85
2024/01/23 11:58:42;;;;;;;25.83;6.80;;;8.30;99.90;;;;;;5032452;28;20538;-86
2024/01/23 12:01:15;;;;;;;20.87;5.47;;;8.30;99.90;;;;;;5033683;28;20033;-86
2024/01/23 12:03:50;;;;;;;23.63;5.80;;;8.40;99.90;;;;;;5034637;28;20653;-85
2024/01/23 12:06:19;;;;;;;27.10;6.13;;;8.30;99.90;;;;;;5043486;28;20048;-86
2024/01/23 12:08:45;;;;;;;27.97;6.40;;;8.30;99.90;;;;;;5035170;28;20040;-84
2024/01/23 12:11:16;;;;;;;26.60;5.87;;;8.30;99.90;;;;;;5032751;28;20048;-86
2024/01/23 12:13:49;;;;;;;27.73;6.67;;;8.30;99.90;;;;;;5028829;28;20041;-86
2024/01/23 12:16:16;;;;;;;29.93;6.93;;;8.30;99.90;;;;;;5024962;28;20132;-85
2024/01/23 12:18:42;;;;;;;22.03;6.30;;;8.40;99.90;;;;;;5023557;28;20067;-84
2024/01/23 12:21:09;;;;;;;29.27;5.93;;;8.40;99.90;;;;;;5023550;28;20087;-84
2024/01/23 12:23:35;;;;;;;26.13;6.50;;;8.40;99.90;;;;;;5019595;28;20047;-84
2024/01/23 12:26:01;;;;;;;29.53;6.90;;;8.40;99.90;;;;;;5025946;28;20558;-85
2024/01/23 12:28:33;;;;;;;35.07;6.90;;;8.50;99.90;;;;;;5040256;28;20049;-85
2024/01/23 12:30:59;;;;;;;26.73;6.20;;;8.50;99.90;;;;;;5041448;28;20584;-85
2024/01/23 12:33:26;;;;;;;24.50;5.97;;;8.50;99.90;;;;;;5024934;28;20794;-87
2024/01/23 12:35:52;;;;;;;29.90;5.90;;;8.50;99.90;;;;;;5040165;28;20053;-83
2024/01/23 12:38:19;;;;;;;28.90;6.73;;;8.60;99.90;;;;;;5040848;28;20382;-84
2024/01/23 12:40:45;;;;;;;27.83;6.17;;;8.70;99.90;;;;;;5024685;28;20037;-85
2024/01/23 12:43:12;;;;;;;26.17;6.43;;;8.70;99.90;;;;;;5040967;28;20479;-86
2024/01/23 12:45:38;;;;;;;27.17;6.47;;;8.70;99.90;;;;;;5026707;28;20095;-85